sensor_id;sensor_type;location;lat;lon;timestamp;pressure;altitude;pressure_sealevel;temperature;humidity
17855;BME280;9053;53.358;6.382;2022-11-25T00:01:47;100864.44;;;8.45;100.00
17855;BME280;9053;53.358;6.382;2022-11-25T00:04:17;100861.00;;;8.46;100.00
17855;BME280;9053;53.358;6.382;2022-11-25T00:06:48;100863.69;;;8.48;100.00
17855;BME280;9053;53.358;6.382;2022-11-25T00:09:18;100860.22;;;8.49;100.00
17855;BME280;9053;53.358;6.382;2022-11-25T00:11:47;100850.63;;;8.49;100.00
17855;BME280;9053;53.358;6.382;2022-11-25T00:14:17;100841.97;;;8.50;100.00
17855;BME280;9053;53.358;6.382;2022-11-25T00:16:49;100853.31;;;8.51;100.00
17855;BME280;9053;53.358;6.382;2022-11-25T00:19:19;100847.19;;;8.50;100.00
17855;BME280;9053;53.358;6.382;2022-11-25T00:21:49;100851.66;;;8.53;100.00
17855;BME280;9053;53.358;6.382;2022-11-25T00:24:19;100842.97;;;8.54;100.00
17855;BME280;9053;53.358;6.382;2022-11-25T00:26:48;100843.81;;;8.53;100.00
17855;BME280;9053;53.358;6.382;2022-11-25T00:29:18;100840.28;;;8.52;100.00
17855;BME280;9053;53.358;6.382;2022-11-25T00:31:51;100850.78;;;8.52;100.00
17855;BME280;9053;53.358;6.382;2022-11-25T00:34:20;100843.72;;;8.51;100.00
17855;BME280;9053;53.358;6.382;2022-11-25T00:36:50;100840.13;;;8.49;100.00
17855;BME280;9053;53.358;6.382;2022-11-25T00:39:20;100835.94;;;8.53;100.00
17855;BME280;9053;53.358;6.382;2022-11-25T00:41:51;100841.19;;;8.53;100.00
17855;BME280;9053;53.358;6.382;2022-11-25T00:44:33;100835.06;;;8.52;100.00
17855;BME280;9053;53.358;6.382;2022-11-25T00:47:11;100850.78;;;8.52;100.00
17855;BME280;9053;53.358;6.382;2022-11-25T00:49:43;100837.59;;;8.51;100.00
17855;BME280;9053;53.358;6.382;2022-11-25T00:52:14;100849.81;;;8.50;100.00
17855;BME280;9053;53.358;6.382;2022-11-25T00:54:45;100837.53;;;8.49;100.00
17855;BME280;9053;53.358;6.382;2022-11-25T00:57:16;100837.59;;;8.51;100.00
17855;BME280;9053;53.358;6.382;2022-11-25T00:59:47;100837.69;;;8.52;100.00
17855;BME280;9053;53.358;6.382;2022-11-25T01:02:20;100835.88;;;8.51;100.00
17855;BME280;9053;53.358;6.382;2022-11-25T01:04:50;100830.59;;;8.50;100.00
17855;BME280;9053;53.358;6.382;2022-11-25T01:07:19;100842.91;;;8.52;100.00
17855;BME280;9053;53.358;6.382;2022-11-25T01:09:49;100844.69;;;8.53;100.00
17855;BME280;9053;53.358;6.382;2022-11-25T01:12:19;100833.31;;;8.53;100.00
17855;BME280;9053;53.358;6.382;2022-11-25T01:14:48;100841.25;;;8.54;100.00
17855;BME280;9053;53.358;6.382;2022-11-25T01:17:21;100842.19;;;8.56;100.00
17855;BME280;9053;53.358;6.382;2022-11-25T01:19:50;100836.94;;;8.56;100.00
17855;BME280;9053;53.358;6.382;2022-11-25T01:22:20;100828.28;;;8.57;100.00
17855;BME280;9053;53.358;6.382;2022-11-25T01:24:50;100829.16;;;8.58;100.00
17855;BME280;9053;53.358;6.382;2022-11-25T01:27:20;100830.06;;;8.58;100.00
17855;BME280;9053;53.358;6.382;2022-11-25T01:29:49;100836.19;;;8.59;100.00
17855;BME280;9053;53.358;6.382;2022-11-25T01:32:22;100832.75;;;8.60;100.00
17855;BME280;9053;53.358;6.382;2022-11-25T01:34:51;100830.19;;;8.61;100.00
17855;BME280;9053;53.358;6.382;2022-11-25T01:37:21;100835.41;;;8.61;100.00
17855;BME280;9053;53.358;6.382;2022-11-25T01:39:51;100839.00;;;8.63;100.00
17855;BME280;9053;53.358;6.382;2022-11-25T01:42:21;100838.19;;;8.64;100.00
17855;BME280;9053;53.358;6.382;2022-11-25T01:45:28;100837.34;;;8.65;100.00
17855;BME280;9053;53.358;6.382;2022-11-25T01:48:10;100840.81;;;8.64;100.00
17855;BME280;9053;53.358;6.382;2022-11-25T01:50:41;100843.34;;;8.63;100.00
17855;BME280;9053;53.358;6.382;2022-11-25T01:53:13;100838.13;;;8.63;100.00
17855;BME280;9053;53.358;6.382;2022-11-25T01:55:48;100848.59;;;8.63;100.00
17855;BME280;9053;53.358;6.382;2022-11-25T01:58:23;100842.47;;;8.62;100.00
17855;BME280;9053;53.358;6.382;2022-11-25T02:00:54;100837.22;;;8.62;100.00
17855;BME280;9053;53.358;6.382;2022-11-25T02:03:29;100838.13;;;8.63;100.00
17855;BME280;9053;53.358;6.382;2022-11-25T02:06:04;100831.97;;;8.62;100.00
17855;BME280;9053;53.358;6.382;2022-11-25T02:08:36;100839.00;;;8.63;100.00
17855;BME280;9053;53.358;6.382;2022-11-25T02:11:06;100843.34;;;8.63;100.00
17855;BME280;9053;53.358;6.382;2022-11-25T02:13:37;100839.00;;;8.63;100.00
17855;BME280;9053;53.358;6.382;2022-11-25T02:16:07;100833.75;;;8.63;100.00
17855;BME280;9053;53.358;6.382;2022-11-25T02:18:39;100833.75;;;8.63;100.00
17855;BME280;9053;53.358;6.382;2022-11-25T02:21:09;100830.31;;;8.64;100.00
17855;BME280;9053;53.358;6.382;2022-11-25T02:23:42;100839.13;;;8.66;100.00
17855;BME280;9053;53.358;6.382;2022-11-25T02:26:19;100829.56;;;8.67;100.00
17855;BME280;9053;53.358;6.382;2022-11-25T02:28:49;100836.56;;;8.68;100.00
17855;BME280;9053;53.358;6.382;2022-11-25T02:31:21;100824.44;;;8.70;100.00
17855;BME280;9053;53.358;6.382;2022-11-25T02:33:51;100831.44;;;8.71;100.00
17855;BME280;9053;53.358;6.382;2022-11-25T02:36:21;100834.97;;;8.72;100.00
17855;BME280;9053;53.358;6.382;2022-11-25T02:38:54;100832.34;;;8.72;100.00
17855;BME280;9053;53.358;6.382;2022-11-25T02:41:29;100823.66;;;8.73;100.00
17855;BME280;9053;53.358;6.382;2022-11-25T02:44:00;100817.53;;;8.72;100.00
17855;BME280;9053;53.358;6.382;2022-11-25T02:46:31;100817.66;;;8.75;100.00
17855;BME280;9053;53.358;6.382;2022-11-25T02:49:02;100814.94;;;8.74;100.00
17855;BME280;9053;53.358;6.382;2022-11-25T02:51:36;100815.06;;;8.77;100.00
17855;BME280;9053;53.358;6.382;2022-11-25T02:54:06;100821.22;;;8.77;100.00
17855;BME280;9053;53.358;6.382;2022-11-25T02:56:39;100809.00;;;8.78;100.00
17855;BME280;9053;53.358;6.382;2022-11-25T02:59:09;100807.19;;;8.77;100.00
17855;BME280;9053;53.358;6.382;2022-11-25T03:01:39;100801.16;;;8.78;100.00
17855;BME280;9053;53.358;6.382;2022-11-25T03:04:09;100795.91;;;8.78;100.00
17855;BME280;9053;53.358;6.382;2022-11-25T03:06:39;100800.25;;;8.77;100.00
17855;BME280;9053;53.358;6.382;2022-11-25T03:09:09;100801.16;;;8.78;100.00
17855;BME280;9053;53.358;6.382;2022-11-25T03:11:41;100800.09;;;8.74;100.00
17855;BME280;9053;53.358;6.382;2022-11-25T03:14:23;100824.47;;;8.72;100.00
17855;BME280;9053;53.358;6.382;2022-11-25T03:16:53;100807.03;;;8.72;100.00
17855;BME280;9053;53.358;6.382;2022-11-25T03:19:23;100810.44;;;8.70;100.00
17855;BME280;9053;53.358;6.382;2022-11-25T03:21:53;100819.19;;;8.70;100.00
17855;BME280;9053;53.358;6.382;2022-11-25T03:24:23;100821.81;;;8.70;100.00
17855;BME280;9053;53.358;6.382;2022-11-25T03:26:55;100816.59;;;8.72;100.00
17855;BME280;9053;53.358;6.382;2022-11-25T03:29:25;100822.69;;;8.71;100.00
17855;BME280;9053;53.358;6.382;2022-11-25T03:31:54;100817.47;;;8.71;100.00
17855;BME280;9053;53.358;6.382;2022-11-25T03:34:24;100820.06;;;8.71;100.00
17855;BME280;9053;53.358;6.382;2022-11-25T03:36:54;100819.31;;;8.73;100.00
17855;BME280;9053;53.358;6.382;2022-11-25T03:39:24;100814.13;;;8.75;100.00
17855;BME280;9053;53.358;6.382;2022-11-25T03:41:56;100821.22;;;8.77;100.00
17855;BME280;9053;53.358;6.382;2022-11-25T03:44:26;100814.25;;;8.78;100.00
17855;BME280;9053;53.358;6.382;2022-11-25T03:46:56;100817.00;;;8.81;100.00
17855;BME280;9053;53.358;6.382;2022-11-25T03:49:26;100820.59;;;8.83;100.00
17855;BME280;9053;53.358;6.382;2022-11-25T03:51:55;100820.66;;;8.84;100.00
17855;BME280;9053;53.358;6.382;2022-11-25T03:54:25;100822.44;;;8.85;100.00
17855;BME280;9053;53.358;6.382;2022-11-25T03:56:58;100819.88;;;8.87;100.00
17855;BME280;9053;53.358;6.382;2022-11-25T03:59:27;100819.03;;;8.88;100.00
17855;BME280;9053;53.358;6.382;2022-11-25T04:01:57;100819.09;;;8.90;100.00
17855;BME280;9053;53.358;6.382;2022-11-25T04:04:27;100822.63;;;8.90;100.00
17855;BME280;9053;53.358;6.382;2022-11-25T04:06:57;100820.97;;;8.92;100.00
17855;BME280;9053;53.358;6.382;2022-11-25T04:09:27;100826.22;;;8.92;100.00
17855;BME280;9053;53.358;6.382;2022-11-25T04:11:59;100836.69;;;8.92;100.00
17855;BME280;9053;53.358;6.382;2022-11-25T04:14:41;100843.72;;;8.93;100.00
17855;BME280;9053;53.358;6.382;2022-11-25T04:17:11;100840.25;;;8.94;100.00
17855;BME280;9053;53.358;6.382;2022-11-25T04:19:41;100849.03;;;8.95;100.00
17855;BME280;9053;53.358;6.382;2022-11-25T04:22:10;100857.84;;;8.97;100.00
17855;BME280;9053;53.358;6.382;2022-11-25T04:24:40;100852.56;;;8.95;100.00
17855;BME280;9053;53.358;6.382;2022-11-25T04:27:12;100859.56;;;8.96;100.00
17855;BME280;9053;53.358;6.382;2022-11-25T04:29:45;100859.56;;;8.96;100.00
17855;BME280;9053;53.358;6.382;2022-11-25T04:32:15;100861.31;;;8.96;100.00
17855;BME280;9053;53.358;6.382;2022-11-25T04:34:45;100847.31;;;8.95;100.00
17855;BME280;9053;53.358;6.382;2022-11-25T04:37:14;100855.22;;;8.97;100.00
17855;BME280;9053;53.358;6.382;2022-11-25T04:39:44;100859.66;;;8.98;100.00
17855;BME280;9053;53.358;6.382;2022-11-25T04:42:17;100854.44;;;8.99;100.00
17855;BME280;9053;53.358;6.382;2022-11-25T04:44:59;100866.66;;;8.99;100.00
17855;BME280;9053;53.358;6.382;2022-11-25T04:47:50;100871.03;;;8.98;100.00
17855;BME280;9053;53.358;6.382;2022-11-25T04:50:22;100861.38;;;8.97;100.00
17855;BME280;9053;53.358;6.382;2022-11-25T04:52:52;100871.88;;;8.97;100.00
17855;BME280;9053;53.358;6.382;2022-11-25T04:55:22;100884.16;;;8.98;100.00
17855;BME280;9053;53.358;6.382;2022-11-25T04:57:54;100880.63;;;8.98;100.00
17855;BME280;9053;53.358;6.382;2022-11-25T05:00:24;100885.03;;;8.99;100.00
17855;BME280;9053;53.358;6.382;2022-11-25T05:02:51;100885.09;;;9.00;100.00
17855;BME280;9053;53.358;6.382;2022-11-25T05:05:22;100876.38;;;9.01;100.00
17855;BME280;9053;53.358;6.382;2022-11-25T05:07:51;100878.19;;;9.02;100.00
17855;BME280;9053;53.358;6.382;2022-11-25T05:10:21;100867.72;;;9.02;100.00
17855;BME280;9053;53.358;6.382;2022-11-25T05:12:53;100869.47;;;9.03;100.00
17855;BME280;9053;53.358;6.382;2022-11-25T05:15:23;100880.09;;;9.06;100.00
17855;BME280;9053;53.358;6.382;2022-11-25T05:17:53;100876.66;;;9.07;100.00
17855;BME280;9053;53.358;6.382;2022-11-25T05:20:23;100874.03;;;9.07;100.00
17855;BME280;9053;53.358;6.382;2022-11-25T05:22:52;100874.16;;;9.10;100.00
17855;BME280;9053;53.358;6.382;2022-11-25T05:25:22;100883.00;;;9.13;100.00
17855;BME280;9053;53.358;6.382;2022-11-25T05:27:55;100876.81;;;9.12;100.00
17855;BME280;9053;53.358;6.382;2022-11-25T05:30:27;100875.94;;;9.12;100.00
17855;BME280;9053;53.358;6.382;2022-11-25T05:32:57;100877.75;;;9.13;100.00
17855;BME280;9053;53.358;6.382;2022-11-25T05:35:27;100869.03;;;9.14;100.00
17855;BME280;9053;53.358;6.382;2022-11-25T05:37:58;100879.59;;;9.15;100.00
17855;BME280;9053;53.358;6.382;2022-11-25T05:40:30;100886.53;;;9.15;100.00
17855;BME280;9053;53.358;6.382;2022-11-25T05:43:02;100887.47;;;9.15;100.00
17855;BME280;9053;53.358;6.382;2022-11-25T05:45:32;100889.22;;;9.16;100.00
17855;BME280;9053;53.358;6.382;2022-11-25T05:48:02;100895.38;;;9.17;100.00
17855;BME280;9053;53.358;6.382;2022-11-25T05:50:32;100894.47;;;9.16;100.00
17855;BME280;9053;53.358;6.382;2022-11-25T05:53:02;100904.97;;;9.16;100.00
17855;BME280;9053;53.358;6.382;2022-11-25T05:55:31;100912.78;;;9.15;100.00
17855;BME280;9053;53.358;6.382;2022-11-25T05:58:04;100928.53;;;9.15;100.00
17855;BME280;9053;53.358;6.382;2022-11-25T06:00:34;100926.75;;;9.14;100.00
17855;BME280;9053;53.358;6.382;2022-11-25T06:03:04;100934.63;;;9.14;100.00
17855;BME280;9053;53.358;6.382;2022-11-25T06:05:34;100925.78;;;9.12;100.00
17855;BME280;9053;53.358;6.382;2022-11-25T06:08:04;100933.66;;;9.12;100.00
17855;BME280;9053;53.358;6.382;2022-11-25T06:10:36;100928.41;;;9.12;100.00
17855;BME280;9053;53.358;6.382;2022-11-25T06:13:09;100934.53;;;9.12;100.00
17855;BME280;9053;53.358;6.382;2022-11-25T06:15:40;100938.97;;;9.13;100.00
17855;BME280;9053;53.358;6.382;2022-11-25T06:18:11;100927.59;;;9.13;100.00
17855;BME280;9053;53.358;6.382;2022-11-25T06:20:41;100935.47;;;9.13;100.00
17855;BME280;9053;53.358;6.382;2022-11-25T06:23:11;100942.50;;;9.14;100.00
17855;BME280;9053;53.358;6.382;2022-11-25T06:25:41;100939.00;;;9.15;100.00
17855;BME280;9053;53.358;6.382;2022-11-25T06:28:13;100942.50;;;9.14;100.00
17855;BME280;9053;53.358;6.382;2022-11-25T06:30:43;100947.72;;;9.14;100.00
17855;BME280;9053;53.358;6.382;2022-11-25T06:33:13;100961.75;;;9.14;100.00
17855;BME280;9053;53.358;6.382;2022-11-25T06:35:43;100967.06;;;9.16;100.00
17855;BME280;9053;53.358;6.382;2022-11-25T06:38:13;100970.50;;;9.15;100.00
17855;BME280;9053;53.358;6.382;2022-11-25T06:40:42;100974.94;;;9.16;100.00
17855;BME280;9053;53.358;6.382;2022-11-25T06:43:15;100973.19;;;9.16;100.00
17855;BME280;9053;53.358;6.382;2022-11-25T06:45:44;100976.78;;;9.18;100.00
17855;BME280;9053;53.358;6.382;2022-11-25T06:48:14;100980.25;;;9.17;100.00
17855;BME280;9053;53.358;6.382;2022-11-25T06:50:44;100989.06;;;9.19;100.00
17855;BME280;9053;53.358;6.382;2022-11-25T06:53:14;100991.69;;;9.19;100.00
17855;BME280;9053;53.358;6.382;2022-11-25T06:56:00;100994.47;;;9.22;100.00
17855;BME280;9053;53.358;6.382;2022-11-25T06:58:33;100989.22;;;9.22;100.00
17855;BME280;9053;53.358;6.382;2022-11-25T07:01:05;100994.50;;;9.24;100.00
17855;BME280;9053;53.358;6.382;2022-11-25T07:03:35;100988.44;;;9.25;100.00
17855;BME280;9053;53.358;6.382;2022-11-25T07:06:05;100983.25;;;9.26;100.00
17855;BME280;9053;53.358;6.382;2022-11-25T07:08:35;100988.56;;;9.28;100.00
17855;BME280;9053;53.358;6.382;2022-11-25T07:11:06;100992.94;;;9.27;100.00
17855;BME280;9053;53.358;6.382;2022-11-25T07:13:39;100995.47;;;9.26;100.00
17855;BME280;9053;53.358;6.382;2022-11-25T07:16:10;100993.69;;;9.25;100.00
17855;BME280;9053;53.358;6.382;2022-11-25T07:18:40;100997.22;;;9.25;100.00
17855;BME280;9053;53.358;6.382;2022-11-25T07:21:11;101003.34;;;9.26;100.00
17855;BME280;9053;53.358;6.382;2022-11-25T07:23:43;101007.72;;;9.25;100.00
17855;BME280;9053;53.358;6.382;2022-11-25T07:26:16;101011.22;;;9.26;100.00
17855;BME280;9053;53.358;6.382;2022-11-25T07:28:51;101021.72;;;9.26;100.00
17855;BME280;9053;53.358;6.382;2022-11-25T07:31:22;101026.09;;;9.25;100.00
17855;BME280;9053;53.358;6.382;2022-11-25T07:33:59;101024.34;;;9.26;100.00
17855;BME280;9053;53.358;6.382;2022-11-25T07:36:30;101027.84;;;9.26;100.00
17855;BME280;9053;53.358;6.382;2022-11-25T07:39:03;101034.00;;;9.27;100.00
17855;BME280;9053;53.358;6.382;2022-11-25T07:41:33;101032.28;;;9.27;100.00
17855;BME280;9053;53.358;6.382;2022-11-25T07:44:06;101033.09;;;9.26;100.00
17855;BME280;9053;53.358;6.382;2022-11-25T07:46:38;101046.22;;;9.26;100.00
17855;BME280;9053;53.358;6.382;2022-11-25T07:49:10;101039.25;;;9.27;100.00
17855;BME280;9053;53.358;6.382;2022-11-25T07:51:42;101059.34;;;9.26;100.00
17855;BME280;9053;53.358;6.382;2022-11-25T07:54:12;101060.19;;;9.25;100.00
17855;BME280;9053;53.358;6.382;2022-11-25T07:56:42;101068.97;;;9.26;100.00
17855;BME280;9053;53.358;6.382;2022-11-25T07:59:18;101052.25;;;9.24;100.00
17855;BME280;9053;53.358;6.382;2022-11-25T08:01:49;101063.59;;;9.23;100.00
17855;BME280;9053;53.358;6.382;2022-11-25T08:04:20;101060.06;;;9.22;100.00
17855;BME280;9053;53.358;6.382;2022-11-25T08:06:51;101065.31;;;9.22;100.00
17855;BME280;9053;53.358;6.382;2022-11-25T08:09:22;101068.00;;;9.24;100.00
17855;BME280;9053;53.358;6.382;2022-11-25T08:11:52;101064.47;;;9.23;100.00
17855;BME280;9053;53.358;6.382;2022-11-25T08:14:24;101068.88;;;9.24;100.00
17855;BME280;9053;53.358;6.382;2022-11-25T08:16:54;101069.81;;;9.25;100.00
17855;BME280;9053;53.358;6.382;2022-11-25T08:19:24;101075.88;;;9.24;100.00
17855;BME280;9053;53.358;6.382;2022-11-25T08:21:57;101080.22;;;9.23;100.00
17855;BME280;9053;53.358;6.382;2022-11-25T08:24:27;101086.38;;;9.24;100.00
17855;BME280;9053;53.358;6.382;2022-11-25T08:26:56;101081.22;;;9.27;100.00
17855;BME280;9053;53.358;6.382;2022-11-25T08:29:31;101086.69;;;9.31;100.00
17855;BME280;9053;53.358;6.382;2022-11-25T08:32:01;101094.75;;;9.36;100.00
17855;BME280;9053;53.358;6.382;2022-11-25T08:34:37;101104.69;;;9.43;100.00
17855;BME280;9053;53.358;6.382;2022-11-25T08:37:07;101100.47;;;9.47;100.00
17855;BME280;9053;53.358;6.382;2022-11-25T08:39:37;101099.84;;;9.52;100.00
17855;BME280;9053;53.358;6.382;2022-11-25T08:42:18;101107.00;;;9.57;100.00
17855;BME280;9053;53.358;6.382;2022-11-25T08:44:53;101102.72;;;9.59;100.00
17855;BME280;9053;53.358;6.382;2022-11-25T08:47:23;101102.84;;;9.62;100.00
17855;BME280;9053;53.358;6.382;2022-11-25T08:49:54;101102.91;;;9.63;100.00
17855;BME280;9053;53.358;6.382;2022-11-25T08:52:24;101100.34;;;9.65;100.00
17855;BME280;9053;53.358;6.382;2022-11-25T08:54:55;101113.63;;;9.68;100.00
17855;BME280;9053;53.358;6.382;2022-11-25T08:57:24;101112.69;;;9.67;100.00
17855;BME280;9053;53.358;6.382;2022-11-25T08:59:57;101111.00;;;9.68;100.00
17855;BME280;9053;53.358;6.382;2022-11-25T09:02:26;101118.03;;;9.69;100.00
17855;BME280;9053;53.358;6.382;2022-11-25T09:04:56;101118.91;;;9.69;100.00
17855;BME280;9053;53.358;6.382;2022-11-25T09:07:26;101119.69;;;9.67;100.00
17855;BME280;9053;53.358;6.382;2022-11-25T09:09:59;101118.78;;;9.66;100.00
17855;BME280;9053;53.358;6.382;2022-11-25T09:12:29;101120.53;;;9.66;100.00
17855;BME280;9053;53.358;6.382;2022-11-25T09:15:01;101130.19;;;9.67;100.00
17855;BME280;9053;53.358;6.382;2022-11-25T09:17:31;101140.78;;;9.68;100.00
17855;BME280;9053;53.358;6.382;2022-11-25T09:20:04;101139.88;;;9.68;100.00
17855;BME280;9053;53.358;6.382;2022-11-25T09:22:34;101151.28;;;9.68;100.00
17855;BME280;9053;53.358;6.382;2022-11-25T09:25:05;101147.88;;;9.71;100.00
17855;BME280;9053;53.358;6.382;2022-11-25T09:27:35;101154.03;;;9.71;100.00
17855;BME280;9053;53.358;6.382;2022-11-25T09:30:09;101150.56;;;9.72;100.00
17855;BME280;9053;53.358;6.382;2022-11-25T09:32:39;101155.88;;;9.74;100.00
17855;BME280;9053;53.358;6.382;2022-11-25T09:35:10;101159.34;;;9.73;100.00
17855;BME280;9053;53.358;6.382;2022-11-25T09:37:40;101154.09;;;9.73;100.00
17855;BME280;9053;53.358;6.382;2022-11-25T09:40:16;101158.50;;;9.74;100.00
17855;BME280;9053;53.358;6.382;2022-11-25T09:42:51;101166.47;;;9.75;100.00
17855;BME280;9053;53.358;6.382;2022-11-25T09:45:46;101170.78;;;9.75;100.00
17855;BME280;9053;53.358;6.382;2022-11-25T09:48:44;101182.25;;;9.77;100.00
17855;BME280;9053;53.358;6.382;2022-11-25T09:51:19;101182.25;;;9.77;100.00
17855;BME280;9053;53.358;6.382;2022-11-25T09:53:52;101184.13;;;9.80;100.00
17855;BME280;9053;53.358;6.382;2022-11-25T09:56:30;101190.34;;;9.82;100.00
17855;BME280;9053;53.358;6.382;2022-11-25T09:59:06;101198.34;;;9.85;100.00
17855;BME280;9053;53.358;6.382;2022-11-25T10:01:45;101202.84;;;9.87;100.00
17855;BME280;9053;53.358;6.382;2022-11-25T10:04:20;101199.41;;;9.88;100.00
17855;BME280;9053;53.358;6.382;2022-11-25T10:06:54;101198.63;;;9.91;100.00
17855;BME280;9053;53.358;6.382;2022-11-25T10:09:29;101197.84;;;9.93;100.00
17855;BME280;9053;53.358;6.382;2022-11-25T10:12:04;101191.75;;;9.94;100.00
17855;BME280;9053;53.358;6.382;2022-11-25T10:14:39;101208.56;;;9.98;100.00
17855;BME280;9053;53.358;6.382;2022-11-25T10:17:19;101198.94;;;9.99;100.00
17855;BME280;9053;53.358;6.382;2022-11-25T10:19:59;101195.47;;;10.00;100.00
17855;BME280;9053;53.358;6.382;2022-11-25T10:22:32;101204.41;;;10.03;100.00
17855;BME280;9053;53.358;6.382;2022-11-25T10:25:12;101208.88;;;10.06;100.00
17855;BME280;9053;53.358;6.382;2022-11-25T10:27:47;101220.34;;;10.08;100.00
17855;BME280;9053;53.358;6.382;2022-11-25T10:30:19;101228.28;;;10.09;100.00
17855;BME280;9053;53.358;6.382;2022-11-25T10:32:57;101227.44;;;10.10;100.00
17855;BME280;9053;53.358;6.382;2022-11-25T10:35:31;101224.91;;;10.12;100.00
17855;BME280;9053;53.358;6.382;2022-11-25T10:38:04;101226.75;;;10.14;100.00
17855;BME280;9053;53.358;6.382;2022-11-25T10:40:45;101230.44;;;10.18;100.00
17855;BME280;9053;53.358;6.382;2022-11-25T10:43:16;101224.41;;;10.21;100.00
17855;BME280;9053;53.358;6.382;2022-11-25T10:45:57;101235.81;;;10.21;100.00
17855;BME280;9053;53.358;6.382;2022-11-25T10:48:48;101238.56;;;10.24;100.00
17855;BME280;9053;53.358;6.382;2022-11-25T10:51:32;101252.66;;;10.26;100.00
17855;BME280;9053;53.358;6.382;2022-11-25T10:54:15;101251.94;;;10.29;100.00
17855;BME280;9053;53.358;6.382;2022-11-25T10:56:54;101255.38;;;10.28;100.00
17855;BME280;9053;53.358;6.382;2022-11-25T10:59:28;101261.59;;;10.30;100.00
17855;BME280;9053;53.358;6.382;2022-11-25T11:02:14;101266.06;;;10.32;100.00
17855;BME280;9053;53.358;6.382;2022-11-25T11:04:55;101263.53;;;10.34;100.00
17855;BME280;9053;53.358;6.382;2022-11-25T11:07:26;101264.34;;;10.33;100.00
17855;BME280;9053;53.358;6.382;2022-11-25T11:10:13;101274.16;;;10.37;100.00
17855;BME280;9053;53.358;6.382;2022-11-25T11:12:54;101274.34;;;10.42;100.00
17855;BME280;9053;53.358;6.382;2022-11-25T11:15:26;101271.84;;;10.45;100.00
17855;BME280;9053;53.358;6.382;2022-11-25T11:17:58;101281.53;;;10.46;100.00
17855;BME280;9053;53.358;6.382;2022-11-25T11:20:31;101278.84;;;10.44;100.00
17855;BME280;9053;53.358;6.382;2022-11-25T11:23:04;101283.22;;;10.44;100.00
17855;BME280;9053;53.358;6.382;2022-11-25T11:25:36;101285.88;;;10.45;100.00
17855;BME280;9053;53.358;6.382;2022-11-25T11:28:24;101292.19;;;10.49;100.00
17855;BME280;9053;53.358;6.382;2022-11-25T11:30:57;101287.94;;;10.52;100.00
17855;BME280;9053;53.358;6.382;2022-11-25T11:33:32;101297.75;;;10.56;100.00
17855;BME280;9053;53.358;6.382;2022-11-25T11:36:14;101298.88;;;10.63;100.00
17855;BME280;9053;53.358;6.382;2022-11-25T11:38:53;101294.59;;;10.65;100.00
17855;BME280;9053;53.358;6.382;2022-11-25T11:41:33;101298.31;;;10.70;100.00
17855;BME280;9053;53.358;6.382;2022-11-25T11:44:15;101304.63;;;10.74;100.00
17855;BME280;9053;53.358;6.382;2022-11-25T11:46:58;101308.38;;;10.80;100.00
17855;BME280;9053;53.358;6.382;2022-11-25T11:49:50;101304.19;;;10.86;100.00
17855;BME280;9053;53.358;6.382;2022-11-25T11:52:34;101314.00;;;10.90;100.00
17855;BME280;9053;53.358;6.382;2022-11-25T11:55:19;101313.31;;;10.94;100.00
17855;BME280;9053;53.358;6.382;2022-11-25T11:57:57;101319.50;;;10.96;100.00
17855;BME280;9053;53.358;6.382;2022-11-25T12:00:31;101322.28;;;10.99;100.00
17855;BME280;9053;53.358;6.382;2022-11-25T12:03:10;101324.19;;;11.03;100.00
17855;BME280;9053;53.358;6.382;2022-11-25T12:05:41;101330.41;;;11.05;100.00
17855;BME280;9053;53.358;6.382;2022-11-25T12:08:19;101340.22;;;11.09;100.00
17855;BME280;9053;53.358;6.382;2022-11-25T12:10:54;101333.25;;;11.11;100.00
17855;BME280;9053;53.358;6.382;2022-11-25T12:13:32;101338.59;;;11.13;100.00
17855;BME280;9053;53.358;6.382;2022-11-25T12:16:10;101341.31;;;11.14;100.00
17855;BME280;9053;53.358;6.382;2022-11-25T12:18:47;101348.34;;;11.15;100.00
17855;BME280;9053;53.358;6.382;2022-11-25T12:21:29;101357.22;;;11.17;100.00
17855;BME280;9053;53.358;6.382;2022-11-25T12:24:17;101357.28;;;11.19;100.00
17855;BME280;9053;53.358;6.382;2022-11-25T12:26:55;101352.03;;;11.19;100.00
17855;BME280;9053;53.358;6.382;2022-11-25T12:29:32;101356.50;;;11.21;100.00
17855;BME280;9053;53.358;6.382;2022-11-25T12:32:17;101360.03;;;11.22;100.00
17855;BME280;9053;53.358;6.382;2022-11-25T12:34:54;101369.59;;;11.20;100.00
17855;BME280;9053;53.358;6.382;2022-11-25T12:37:30;101369.59;;;11.20;100.00
17855;BME280;9053;53.358;6.382;2022-11-25T12:40:08;101364.34;;;11.20;100.00
17855;BME280;9053;53.358;6.382;2022-11-25T12:42:41;101370.56;;;11.22;100.00
17855;BME280;9053;53.358;6.382;2022-11-25T12:45:17;101371.69;;;11.29;100.00
17855;BME280;9053;53.358;6.382;2022-11-25T12:47:49;101368.34;;;11.33;100.00
17855;BME280;9053;53.358;6.382;2022-11-25T12:50:25;101379.19;;;11.40;100.00
17855;BME280;9053;53.358;6.382;2022-11-25T12:53:02;101383.75;;;11.44;100.00
17855;BME280;9053;53.358;6.382;2022-11-25T12:55:38;101377.69;;;11.47;100.00
17855;BME280;9053;53.358;6.382;2022-11-25T12:58:22;101386.59;;;11.51;100.00
17855;BME280;9053;53.358;6.382;2022-11-25T13:01:20;101384.03;;;11.52;100.00
17855;BME280;9053;53.358;6.382;2022-11-25T13:04:28;101390.28;;;11.54;100.00
17855;BME280;9053;53.358;6.382;2022-11-25T13:10:25;101400.84;;;11.56;100.00
17855;BME280;9053;53.358;6.382;2022-11-25T13:13:21;101401.63;;;11.53;100.00
17855;BME280;9053;53.358;6.382;2022-11-25T13:15:54;101408.63;;;11.53;100.00
17855;BME280;9053;53.358;6.382;2022-11-25T13:18:27;101414.78;;;11.53;100.00
17855;BME280;9053;53.358;6.382;2022-11-25T13:21:05;101418.28;;;11.52;100.00
17855;BME280;9053;53.358;6.382;2022-11-25T13:23:47;101417.44;;;11.53;100.00
17855;BME280;9053;53.358;6.382;2022-11-25T13:26:34;101426.19;;;11.52;100.00
17855;BME280;9053;53.358;6.382;2022-11-25T13:32:38;101417.38;;;11.52;100.00
17855;BME280;9053;53.358;6.382;2022-11-25T13:35:30;101425.34;;;11.53;100.00
17855;BME280;9053;53.358;6.382;2022-11-25T13:38:00;101431.50;;;11.54;100.00